sensor_id;sensor_type;location;lat;lon;timestamp;pressure;altitude;pressure_sealevel;temperature;humidity
17383;BME280;8809;51.892;8.384;2023-05-10T00:00:30;99729.91;;;15.23;100.00
17383;BME280;8809;51.892;8.384;2023-05-10T00:02:58;99721.13;;;15.21;100.00
17383;BME280;8809;51.892;8.384;2023-05-10T00:05:27;99723.75;;;15.21;100.00
17383;BME280;8809;51.892;8.384;2023-05-10T00:07:54;99714.13;;;15.20;100.00
17383;BME280;8809;51.892;8.384;2023-05-10T00:10:23;99717.59;;;15.19;100.00
17383;BME280;8809;51.892;8.384;2023-05-10T00:12:50;99716.72;;;15.19;100.00
17383;BME280;8809;51.892;8.384;2023-05-10T00:15:17;99719.38;;;15.17;100.00
17383;BME280;8809;51.892;8.384;2023-05-10T00:17:44;99715.84;;;15.17;100.00
17383;BME280;8809;51.892;8.384;2023-05-10T00:20:12;99716.72;;;15.16;100.00
17383;BME280;8809;51.892;8.384;2023-05-10T00:22:42;99719.31;;;15.14;100.00
17383;BME280;8809;51.892;8.384;2023-05-10T00:25:09;99712.31;;;15.15;100.00
17383;BME280;8809;51.892;8.384;2023-05-10T00:27:39;99707.03;;;15.12;100.00
17383;BME280;8809;51.892;8.384;2023-05-10T00:30:10;99709.66;;;15.12;100.00
17383;BME280;8809;51.892;8.384;2023-05-10T00:32:37;99705.28;;;15.12;100.00
17383;BME280;8809;51.892;8.384;2023-05-10T00:35:05;99714.03;;;15.11;100.00
17383;BME280;8809;51.892;8.384;2023-05-10T00:37:34;99705.28;;;15.11;100.00
17383;BME280;8809;51.892;8.384;2023-05-10T00:40:06;99694.78;;;15.12;100.00
17383;BME280;8809;51.892;8.384;2023-05-10T00:42:33;99700.00;;;15.09;100.00
17383;BME280;8809;51.892;8.384;2023-05-10T00:45:00;99705.25;;;15.09;100.00
17383;BME280;8809;51.892;8.384;2023-05-10T00:47:28;99704.41;;;15.09;100.00
17383;BME280;8809;51.892;8.384;2023-05-10T00:49:57;99702.63;;;15.09;100.00
17383;BME280;8809;51.892;8.384;2023-05-10T00:52:26;99704.41;;;15.09;100.00
17383;BME280;8809;51.892;8.384;2023-05-10T00:54:54;99705.28;;;15.08;100.00
17383;BME280;8809;51.892;8.384;2023-05-10T00:57:23;99701.75;;;15.07;100.00
17383;BME280;8809;51.892;8.384;2023-05-10T00:59:51;99702.63;;;15.08;100.00
17383;BME280;8809;51.892;8.384;2023-05-10T01:02:19;99703.50;;;15.07;100.00
17383;BME280;8809;51.892;8.384;2023-05-10T01:04:46;99697.38;;;15.06;100.00
17383;BME280;8809;51.892;8.384;2023-05-10T01:07:14;99693.84;;;15.06;100.00
17383;BME280;8809;51.892;8.384;2023-05-10T01:09:41;99692.97;;;15.05;100.00
17383;BME280;8809;51.892;8.384;2023-05-10T01:12:08;99694.72;;;15.05;100.00
17383;BME280;8809;51.892;8.384;2023-05-10T01:14:38;99700.00;;;15.06;100.00
17383;BME280;8809;51.892;8.384;2023-05-10T01:17:12;99698.28;;;15.08;100.00
17383;BME280;8809;51.892;8.384;2023-05-10T01:19:40;99701.75;;;15.07;100.00
17383;BME280;8809;51.892;8.384;2023-05-10T01:22:18;99696.44;;;15.01;100.00
17383;BME280;8809;51.892;8.384;2023-05-10T01:25:09;99701.66;;;15.00;100.00
17383;BME280;8809;51.892;8.384;2023-05-10T01:31:06;99692.91;;;14.96;100.00
17383;BME280;8809;51.892;8.384;2023-05-10T01:33:39;99695.47;;;14.89;100.00
17383;BME280;8809;51.892;8.384;2023-05-10T01:36:14;99696.25;;;14.80;100.00
17383;BME280;8809;51.892;8.384;2023-05-10T01:38:46;99697.03;;;14.73;100.00
17383;BME280;8809;51.892;8.384;2023-05-10T01:41:19;99687.38;;;14.69;100.00
17383;BME280;8809;51.892;8.384;2023-05-10T01:43:55;99699.59;;;14.67;100.00
17383;BME280;8809;51.892;8.384;2023-05-10T01:46:28;99687.28;;;14.60;100.00
17383;BME280;8809;51.892;8.384;2023-05-10T01:48:58;99694.25;;;14.58;100.00
17383;BME280;8809;51.892;8.384;2023-05-10T01:51:39;99695.94;;;14.53;100.00
17383;BME280;8809;51.892;8.384;2023-05-10T01:54:11;99698.44;;;14.43;100.00
17383;BME280;8809;51.892;8.384;2023-05-10T01:56:41;99701.06;;;14.40;100.00
17383;BME280;8809;51.892;8.384;2023-05-10T01:59:15;99694.06;;;14.39;100.00
17383;BME280;8809;51.892;8.384;2023-05-10T02:01:44;99700.06;;;14.35;100.00
17383;BME280;8809;51.892;8.384;2023-05-10T02:04:16;99696.50;;;14.29;100.00
17383;BME280;8809;51.892;8.384;2023-05-10T02:06:45;99709.53;;;14.23;100.00
17383;BME280;8809;51.892;8.384;2023-05-10T02:09:14;99701.66;;;14.20;100.00
17383;BME280;8809;51.892;8.384;2023-05-10T02:11:42;99706.88;;;14.18;100.00
17383;BME280;8809;51.892;8.384;2023-05-10T02:16:48;99706.81;;;14.15;100.00
17383;BME280;8809;51.892;8.384;2023-05-10T02:19:19;99713.81;;;14.15;100.00
17383;BME280;8809;51.892;8.384;2023-05-10T02:21:47;99705.06;;;14.13;100.00
17383;BME280;8809;51.892;8.384;2023-05-10T02:24:15;99712.03;;;14.13;100.00
17383;BME280;8809;51.892;8.384;2023-05-10T02:26:44;99708.53;;;14.13;100.00
17383;BME280;8809;51.892;8.384;2023-05-10T02:29:13;99718.16;;;14.14;100.00
17383;BME280;8809;51.892;8.384;2023-05-10T02:31:41;99717.28;;;14.13;100.00
17383;BME280;8809;51.892;8.384;2023-05-10T02:34:10;99711.16;;;14.13;100.00
17383;BME280;8809;51.892;8.384;2023-05-10T02:36:39;99712.03;;;14.12;100.00
17383;BME280;8809;51.892;8.384;2023-05-10T02:39:08;99711.16;;;14.13;100.00
17383;BME280;8809;51.892;8.384;2023-05-10T02:41:44;99709.41;;;14.13;100.00
17383;BME280;8809;51.892;8.384;2023-05-10T02:44:15;99710.28;;;14.11;100.00
17383;BME280;8809;51.892;8.384;2023-05-10T02:46:44;99711.13;;;14.10;100.00
17383;BME280;8809;51.892;8.384;2023-05-10T02:49:12;99708.50;;;14.08;100.00
17383;BME280;8809;51.892;8.384;2023-05-10T02:51:44;99712.84;;;14.08;100.00
17383;BME280;8809;51.892;8.384;2023-05-10T02:54:18;99709.41;;;14.10;100.00
17383;BME280;8809;51.892;8.384;2023-05-10T02:56:49;99710.22;;;14.08;100.00
17383;BME280;8809;51.892;8.384;2023-05-10T02:59:17;99711.94;;;14.06;100.00
17383;BME280;8809;51.892;8.384;2023-05-10T03:01:44;99712.81;;;14.06;100.00
17383;BME280;8809;51.892;8.384;2023-05-10T03:04:14;99711.09;;;14.07;100.00
17383;BME280;8809;51.892;8.384;2023-05-10T03:06:43;99708.41;;;14.04;100.00
17383;BME280;8809;51.892;8.384;2023-05-10T03:09:12;99714.56;;;14.03;100.00
17383;BME280;8809;51.892;8.384;2023-05-10T03:11:49;99717.16;;;14.01;100.00
17383;BME280;8809;51.892;8.384;2023-05-10T03:14:34;99719.69;;;13.97;100.00
17383;BME280;8809;51.892;8.384;2023-05-10T03:17:11;99718.78;;;13.95;100.00
17383;BME280;8809;51.892;8.384;2023-05-10T03:19:47;99719.66;;;13.95;100.00
17383;BME280;8809;51.892;8.384;2023-05-10T03:22:23;99719.63;;;13.94;100.00
17383;BME280;8809;51.892;8.384;2023-05-10T03:24:53;99717.00;;;13.94;100.00
17383;BME280;8809;51.892;8.384;2023-05-10T03:27:22;99721.38;;;13.92;100.00
17383;BME280;8809;51.892;8.384;2023-05-10T03:29:53;99719.63;;;13.91;100.00
17383;BME280;8809;51.892;8.384;2023-05-10T03:32:23;99725.75;;;13.91;100.00
17383;BME280;8809;51.892;8.384;2023-05-10T03:34:52;99720.44;;;13.88;100.00
17383;BME280;8809;51.892;8.384;2023-05-10T03:37:20;99724.84;;;13.89;100.00
17383;BME280;8809;51.892;8.384;2023-05-10T03:39:47;99734.41;;;13.87;100.00
17383;BME280;8809;51.892;8.384;2023-05-10T03:42:14;99736.16;;;13.87;100.00
17383;BME280;8809;51.892;8.384;2023-05-10T03:44:45;99744.88;;;13.86;100.00
17383;BME280;8809;51.892;8.384;2023-05-10T03:47:12;99744.84;;;13.83;100.00
17383;BME280;8809;51.892;8.384;2023-05-10T03:49:39;99748.31;;;13.82;100.00
17383;BME280;8809;51.892;8.384;2023-05-10T03:52:06;99758.81;;;13.82;100.00
17383;BME280;8809;51.892;8.384;2023-05-10T03:54:34;99752.59;;;13.77;100.00
17383;BME280;8809;51.892;8.384;2023-05-10T03:57:01;99755.19;;;13.75;100.00
17383;BME280;8809;51.892;8.384;2023-05-10T03:59:32;99763.03;;;13.72;100.00
17383;BME280;8809;51.892;8.384;2023-05-10T04:01:59;99766.47;;;13.69;100.00
17383;BME280;8809;51.892;8.384;2023-05-10T04:04:26;99763.75;;;13.62;100.00
17383;BME280;8809;51.892;8.384;2023-05-10T04:06:54;99766.28;;;13.57;100.00
17383;BME280;8809;51.892;8.384;2023-05-10T04:09:21;99772.44;;;13.59;100.00
17383;BME280;8809;51.892;8.384;2023-05-10T04:11:49;99774.16;;;13.59;100.00
17383;BME280;8809;51.892;8.384;2023-05-10T04:14:16;99778.53;;;13.58;100.00
17383;BME280;8809;51.892;8.384;2023-05-10T04:16:44;99777.63;;;13.56;100.00
17383;BME280;8809;51.892;8.384;2023-05-10T04:19:13;99777.63;;;13.55;100.00
17383;BME280;8809;51.892;8.384;2023-05-10T04:21:48;99785.47;;;13.56;100.00
17383;BME280;8809;51.892;8.384;2023-05-10T04:24:17;99788.91;;;13.52;100.00
17383;BME280;8809;51.892;8.384;2023-05-10T04:26:44;99786.31;;;13.52;100.00
17383;BME280;8809;51.892;8.384;2023-05-10T04:29:13;99789.84;;;13.54;100.00
17383;BME280;8809;51.892;8.384;2023-05-10T04:31:40;99784.44;;;13.47;100.00
17383;BME280;8809;51.892;8.384;2023-05-10T04:34:07;99797.53;;;13.47;100.00
17383;BME280;8809;51.892;8.384;2023-05-10T04:36:34;99795.78;;;13.46;100.00
17383;BME280;8809;51.892;8.384;2023-05-10T04:39:02;99803.63;;;13.46;100.00
17383;BME280;8809;51.892;8.384;2023-05-10T04:41:29;99794.03;;;13.46;100.00
17383;BME280;8809;51.892;8.384;2023-05-10T04:43:56;99798.34;;;13.41;100.00
17383;BME280;8809;51.892;8.384;2023-05-10T04:46:24;99801.88;;;13.43;100.00
17383;BME280;8809;51.892;8.384;2023-05-10T04:48:51;99805.34;;;13.42;100.00
17383;BME280;8809;51.892;8.384;2023-05-10T04:51:18;99807.84;;;13.36;100.00
17383;BME280;8809;51.892;8.384;2023-05-10T04:53:47;99815.69;;;13.34;100.00
17383;BME280;8809;51.892;8.384;2023-05-10T04:56:14;99807.75;;;13.30;100.00
17383;BME280;8809;51.892;8.384;2023-05-10T04:58:42;99815.56;;;13.28;100.00
17383;BME280;8809;51.892;8.384;2023-05-10T05:01:09;99806.81;;;13.28;100.00
17383;BME280;8809;51.892;8.384;2023-05-10T05:03:37;99814.69;;;13.28;100.00
17383;BME280;8809;51.892;8.384;2023-05-10T05:06:05;99819.06;;;13.29;100.00
17383;BME280;8809;51.892;8.384;2023-05-10T05:08:33;99828.59;;;13.24;100.00
17383;BME280;8809;51.892;8.384;2023-05-10T05:11:00;99829.44;;;13.23;100.00
17383;BME280;8809;51.892;8.384;2023-05-10T05:13:28;99829.41;;;13.21;100.00
17383;BME280;8809;51.892;8.384;2023-05-10T05:15:55;99838.13;;;13.20;100.00
17383;BME280;8809;51.892;8.384;2023-05-10T05:18:29;99842.47;;;13.20;100.00
17383;BME280;8809;51.892;8.384;2023-05-10T05:20:58;99841.63;;;13.21;100.00
17383;BME280;8809;51.892;8.384;2023-05-10T05:23:28;99852.03;;;13.18;100.00
17383;BME280;8809;51.892;8.384;2023-05-10T05:25:55;99861.66;;;13.19;100.00
17383;BME280;8809;51.892;8.384;2023-05-10T05:28:22;99863.41;;;13.18;100.00
17383;BME280;8809;51.892;8.384;2023-05-10T05:30:49;99860.75;;;13.17;100.00
17383;BME280;8809;51.892;8.384;2023-05-10T05:33:16;99860.75;;;13.17;100.00
17383;BME280;8809;51.892;8.384;2023-05-10T05:35:44;99867.75;;;13.18;100.00
17383;BME280;8809;51.892;8.384;2023-05-10T05:38:17;99864.28;;;13.19;100.00
17383;BME280;8809;51.892;8.384;2023-05-10T05:40:45;99859.84;;;13.15;100.00
17383;BME280;8809;51.892;8.384;2023-05-10T05:43:15;99868.56;;;13.14;100.00
17383;BME280;8809;51.892;8.384;2023-05-10T05:45:46;99873.81;;;13.14;100.00
17383;BME280;8809;51.892;8.384;2023-05-10T05:48:16;99879.03;;;13.14;100.00
17383;BME280;8809;51.892;8.384;2023-05-10T05:50:49;99873.81;;;13.14;100.00
17383;BME280;8809;51.892;8.384;2023-05-10T05:53:23;99879.97;;;13.16;100.00
17383;BME280;8809;51.892;8.384;2023-05-10T05:55:52;99880.00;;;13.19;100.00
17383;BME280;8809;51.892;8.384;2023-05-10T05:58:20;99877.38;;;13.19;100.00
17383;BME280;8809;51.892;8.384;2023-05-10T06:00:48;99881.69;;;13.15;100.00
17383;BME280;8809;51.892;8.384;2023-05-10T06:03:15;99886.03;;;13.15;100.00
17383;BME280;8809;51.892;8.384;2023-05-10T06:05:42;99893.06;;;13.16;100.00
17383;BME280;8809;51.892;8.384;2023-05-10T06:08:10;99894.78;;;13.17;100.00
17383;BME280;8809;51.892;8.384;2023-05-10T06:10:40;99894.78;;;13.15;100.00
17383;BME280;8809;51.892;8.384;2023-05-10T06:13:06;99894.75;;;13.14;100.00
17383;BME280;8809;51.892;8.384;2023-05-10T06:15:34;99906.16;;;13.16;100.00
17383;BME280;8809;51.892;8.384;2023-05-10T06:18:01;99897.41;;;13.17;100.00
17383;BME280;8809;51.892;8.384;2023-05-10T06:20:28;99899.19;;;13.16;100.00
17383;BME280;8809;51.892;8.384;2023-05-10T06:22:56;99905.25;;;13.17;100.00
17383;BME280;8809;51.892;8.384;2023-05-10T06:25:24;99907.06;;;13.19;100.00
17383;BME280;8809;51.892;8.384;2023-05-10T06:27:52;99909.72;;;13.21;100.00
17383;BME280;8809;51.892;8.384;2023-05-10T06:30:23;99911.53;;;13.23;100.00
17383;BME280;8809;51.892;8.384;2023-05-10T06:32:53;99922.94;;;13.25;100.00
17383;BME280;8809;51.892;8.384;2023-05-10T06:35:21;99930.78;;;13.25;100.00
17383;BME280;8809;51.892;8.384;2023-05-10T06:37:49;99931.53;;;13.20;100.00
17383;BME280;8809;51.892;8.384;2023-05-10T06:40:17;99936.75;;;13.20;100.00
17383;BME280;8809;51.892;8.384;2023-05-10T06:42:45;99934.16;;;13.20;100.00
17383;BME280;8809;51.892;8.384;2023-05-10T06:45:14;99934.13;;;13.18;100.00
17383;BME280;8809;51.892;8.384;2023-05-10T06:47:41;99937.56;;;13.17;100.00
17383;BME280;8809;51.892;8.384;2023-05-10T06:50:10;99936.75;;;13.20;100.00
17383;BME280;8809;51.892;8.384;2023-05-10T06:52:38;99949.00;;;13.21;100.00
17383;BME280;8809;51.892;8.384;2023-05-10T06:55:06;99940.38;;;13.25;100.00
17383;BME280;8809;51.892;8.384;2023-05-10T06:57:34;99941.31;;;13.28;100.00
17383;BME280;8809;51.892;8.384;2023-05-10T07:00:02;99943.06;;;13.29;100.00
17383;BME280;8809;51.892;8.384;2023-05-10T07:02:32;99939.53;;;13.27;100.00
17383;BME280;8809;51.892;8.384;2023-05-10T07:04:59;99941.38;;;13.31;100.00
17383;BME280;8809;51.892;8.384;2023-05-10T07:07:27;99947.50;;;13.32;100.00
17383;BME280;8809;51.892;8.384;2023-05-10T07:09:57;99937.06;;;13.33;100.00
17383;BME280;8809;51.892;8.384;2023-05-10T07:12:25;99952.84;;;13.38;100.00
17383;BME280;8809;51.892;8.384;2023-05-10T07:14:52;99949.44;;;13.42;100.00
17383;BME280;8809;51.892;8.384;2023-05-10T07:17:20;99956.50;;;13.46;100.00
17383;BME280;8809;51.892;8.384;2023-05-10T07:19:48;99953.97;;;13.51;100.00
17383;BME280;8809;51.892;8.384;2023-05-10T07:22:16;99953.13;;;13.52;100.00
17383;BME280;8809;51.892;8.384;2023-05-10T07:24:44;99952.31;;;13.54;100.00
17383;BME280;8809;51.892;8.384;2023-05-10T07:27:11;99955.03;;;13.60;100.00
17383;BME280;8809;51.892;8.384;2023-05-10T07:29:38;99959.50;;;13.64;100.00
17383;BME280;8809;51.892;8.384;2023-05-10T07:32:06;99969.09;;;13.65;100.00
17383;BME280;8809;51.892;8.384;2023-05-10T07:34:33;99962.13;;;13.66;100.00
17383;BME280;8809;51.892;8.384;2023-05-10T07:37:01;99964.75;;;13.66;100.00
17383;BME280;8809;51.892;8.384;2023-05-10T07:39:28;99962.16;;;13.67;100.00
17383;BME280;8809;51.892;8.384;2023-05-10T07:41:55;99968.34;;;13.71;100.00
17383;BME280;8809;51.892;8.384;2023-05-10T07:44:24;99964.00;;;13.71;100.00
17383;BME280;8809;51.892;8.384;2023-05-10T07:46:51;99968.44;;;13.77;100.00
17383;BME280;8809;51.892;8.384;2023-05-10T07:49:18;99968.59;;;13.83;100.00
17383;BME280;8809;51.892;8.384;2023-05-10T07:51:46;99962.50;;;13.86;100.00
17383;BME280;8809;51.892;8.384;2023-05-10T07:54:15;99966.94;;;13.90;100.00
17383;BME280;8809;51.892;8.384;2023-05-10T07:56:43;99978.28;;;13.89;100.00
17383;BME280;8809;51.892;8.384;2023-05-10T07:59:16;99967.03;;;13.96;100.00
17383;BME280;8809;51.892;8.384;2023-05-10T08:01:44;99959.28;;;14.00;100.00
17383;BME280;8809;51.892;8.384;2023-05-10T08:04:12;99959.31;;;14.03;100.00
17383;BME280;8809;51.892;8.384;2023-05-10T08:06:41;99962.94;;;14.10;100.00
17383;BME280;8809;51.892;8.384;2023-05-10T08:09:18;99966.41;;;14.09;100.00
17383;BME280;8809;51.892;8.384;2023-05-10T08:11:50;99965.53;;;14.08;100.00
17383;BME280;8809;51.892;8.384;2023-05-10T08:14:18;99970.84;;;14.11;100.00
17383;BME280;8809;51.892;8.384;2023-05-10T08:16:45;99977.84;;;14.14;100.00
17383;BME280;8809;51.892;8.384;2023-05-10T08:19:14;99988.41;;;14.17;100.00
17383;BME280;8809;51.892;8.384;2023-05-10T08:21:44;99984.03;;;14.16;100.00
17383;BME280;8809;51.892;8.384;2023-05-10T08:24:11;99991.94;;;14.19;100.00
17383;BME280;8809;51.892;8.384;2023-05-10T08:26:51;99986.78;;;14.22;100.00
17383;BME280;8809;51.892;8.384;2023-05-10T08:29:18;99986.72;;;14.21;100.00
17383;BME280;8809;51.892;8.384;2023-05-10T08:31:45;99994.59;;;14.21;100.00
17383;BME280;8809;51.892;8.384;2023-05-10T08:34:12;100002.34;;;14.15;100.00
17383;BME280;8809;51.892;8.384;2023-05-10T08:36:40;99998.84;;;14.14;100.00
17383;BME280;8809;51.892;8.384;2023-05-10T08:39:07;100000.63;;;14.17;100.00
17383;BME280;8809;51.892;8.384;2023-05-10T08:41:38;99998.91;;;14.17;100.00
17383;BME280;8809;51.892;8.384;2023-05-10T08:44:08;100000.66;;;14.18;100.00
17383;BME280;8809;51.892;8.384;2023-05-10T08:46:35;100004.22;;;14.20;100.00
17383;BME280;8809;51.892;8.384;2023-05-10T08:49:06;100002.50;;;14.24;100.00
17383;BME280;8809;51.892;8.384;2023-05-10T08:51:36;100001.66;;;14.25;100.00
17383;BME280;8809;51.892;8.384;2023-05-10T08:54:07;100007.88;;;14.30;100.00
17383;BME280;8809;51.892;8.384;2023-05-10T08:56:37;100007.84;;;14.28;100.00
17383;BME280;8809;51.892;8.384;2023-05-10T08:59:09;100014.03;;;14.33;100.00
17383;BME280;8809;51.892;8.384;2023-05-10T09:01:41;100009.75;;;14.37;100.00
17383;BME280;8809;51.892;8.384;2023-05-10T09:04:10;100020.25;;;14.38;100.00
17383;BME280;8809;51.892;8.384;2023-05-10T09:06:37;100019.53;;;14.45;100.00
17383;BME280;8809;51.892;8.384;2023-05-10T09:09:05;100024.88;;;14.52;100.00
17383;BME280;8809;51.892;8.384;2023-05-10T09:11:32;100024.13;;;14.57;100.00
17383;BME280;8809;51.892;8.384;2023-05-10T09:13:59;100027.75;;;14.65;100.00
17383;BME280;8809;51.892;8.384;2023-05-10T09:16:28;100025.19;;;14.70;100.00
17383;BME280;8809;51.892;8.384;2023-05-10T09:18:57;100034.84;;;14.72;100.00
17383;BME280;8809;51.892;8.384;2023-05-10T09:21:24;100027.81;;;14.71;100.00
17383;BME280;8809;51.892;8.384;2023-05-10T09:23:51;100032.28;;;14.75;100.00
17383;BME280;8809;51.892;8.384;2023-05-10T09:26:22;100035.16;;;14.92;100.00
17383;BME280;8809;51.892;8.384;2023-05-10T09:28:53;100036.28;;;15.09;100.00
17383;BME280;8809;51.892;8.384;2023-05-10T09:31:47;100028.59;;;15.23;100.00
17383;BME280;8809;51.892;8.384;2023-05-10T09:34:17;100031.28;;;15.29;100.00
17383;BME280;8809;51.892;8.384;2023-05-10T09:36:56;100039.22;;;15.32;100.00
17383;BME280;8809;51.892;8.384;2023-05-10T09:39:32;100038.28;;;15.29;100.00
17383;BME280;8809;51.892;8.384;2023-05-10T09:42:02;100047.09;;;15.31;100.00
17383;BME280;8809;51.892;8.384;2023-05-10T09:44:31;100045.63;;;15.52;100.00
17383;BME280;8809;51.892;8.384;2023-05-10T09:47:00;100045.09;;;15.79;100.00
17383;BME280;8809;51.892;8.384;2023-05-10T09:49:28;100045.19;;;15.87;100.00
17383;BME280;8809;51.892;8.384;2023-05-10T09:52:03;100044.53;;;16.06;100.00
17383;BME280;8809;51.892;8.384;2023-05-10T09:54:32;100054.38;;;16.22;100.00
17383;BME280;8809;51.892;8.384;2023-05-10T09:57:01;100039.47;;;16.23;100.00
17383;BME280;8809;51.892;8.384;2023-05-10T09:59:29;100043.91;;;16.31;100.00
17383;BME280;8809;51.892;8.384;2023-05-10T10:01:57;100044.91;;;16.43;100.00
17383;BME280;8809;51.892;8.384;2023-05-10T10:04:28;100048.53;;;16.58;100.00
17383;BME280;8809;51.892;8.384;2023-05-10T10:07:00;100038.13;;;16.69;100.00
17383;BME280;8809;51.892;8.384;2023-05-10T10:09:30;100045.06;;;16.61;100.00
17383;BME280;8809;51.892;8.384;2023-05-10T10:12:01;100046.75;;;16.54;100.00
17383;BME280;8809;51.892;8.384;2023-05-10T10:14:29;100051.94;;;16.45;100.00
17383;BME280;8809;51.892;8.384;2023-05-10T10:17:00;100048.41;;;16.45;100.00
17383;BME280;8809;51.892;8.384;2023-05-10T10:19:33;100041.44;;;16.50;100.00
17383;BME280;8809;51.892;8.384;2023-05-10T10:22:00;100043.41;;;16.71;100.00
17383;BME280;8809;51.892;8.384;2023-05-10T10:24:28;100052.28;;;16.85;100.00
17383;BME280;8809;51.892;8.384;2023-05-10T10:26:59;100044.56;;;17.08;100.00
17383;BME280;8809;51.892;8.384;2023-05-10T10:29:38;100046.38;;;17.18;100.00
17383;BME280;8809;51.892;8.384;2023-05-10T10:32:12;100050.03;;;17.39;100.00
17383;BME280;8809;51.892;8.384;2023-05-10T10:34:51;100038.72;;;17.69;100.00
17383;BME280;8809;51.892;8.384;2023-05-10T10:37:19;100044.91;;;17.68;100.00
17383;BME280;8809;51.892;8.384;2023-05-10T10:39:49;100045.84;;;17.78;100.00
17383;BME280;8809;51.892;8.384;2023-05-10T10:42:43;100041.41;;;17.80;100.00
17383;BME280;8809;51.892;8.384;2023-05-10T10:45:20;100040.53;;;17.75;100.00
17383;BME280;8809;51.892;8.384;2023-05-10T10:48:23;100042.25;;;17.70;100.00
17383;BME280;8809;51.892;8.384;2023-05-10T10:50:58;100044.91;;;17.67;100.00
17383;BME280;8809;51.892;8.384;2023-05-10T10:53:30;100052.88;;;17.85;100.00
17383;BME280;8809;51.892;8.384;2023-05-10T10:56:17;100042.38;;;18.03;100.00
17383;BME280;8809;51.892;8.384;2023-05-10T10:58:50;100029.22;;;18.29;100.00
17383;BME280;8809;51.892;8.384;2023-05-10T11:01:22;100037.16;;;18.35;100.00
17383;BME280;8809;51.892;8.384;2023-05-10T11:04:18;100030.09;;;18.39;100.00
17383;BME280;8809;51.892;8.384;2023-05-10T11:07:21;100043.31;;;18.34;100.00
17383;BME280;8809;51.892;8.384;2023-05-10T11:09:50;100052.13;;;18.26;100.00
17383;BME280;8809;51.892;8.384;2023-05-10T11:12:17;100054.72;;;18.18;100.00
17383;BME280;8809;51.892;8.384;2023-05-10T11:14:55;100058.22;;;18.09;100.00
17383;BME280;8809;51.892;8.384;2023-05-10T11:17:36;100056.44;;;17.96;100.00
17383;BME280;8809;51.892;8.384;2023-05-10T11:20:14;100051.13;;;17.90;100.00
17383;BME280;8809;51.892;8.384;2023-05-10T11:22:54;100053.75;;;17.78;100.00
17383;BME280;8809;51.892;8.384;2023-05-10T11:25:30;100053.72;;;17.81;100.00
17383;BME280;8809;51.892;8.384;2023-05-10T11:28:00;100052.84;;;17.79;100.00
17383;BME280;8809;51.892;8.384;2023-05-10T11:30:31;100061.59;;;17.69;100.00
17383;BME280;8809;51.892;8.384;2023-05-10T11:33:01;100056.25;;;17.60;100.00
17383;BME280;8809;51.892;8.384;2023-05-10T11:35:30;100061.53;;;17.60;100.00
17383;BME280;8809;51.892;8.384;2023-05-10T11:37:59;100058.88;;;17.55;100.00
17383;BME280;8809;51.892;8.384;2023-05-10T11:40:27;100070.25;;;17.45;100.00
17383;BME280;8809;51.892;8.384;2023-05-10T11:42:56;100079.94;;;17.44;100.00
17383;BME280;8809;51.892;8.384;2023-05-10T11:45:23;100086.94;;;17.42;100.00
17383;BME280;8809;51.892;8.384;2023-05-10T11:47:51;100095.63;;;17.26;100.00
17383;BME280;8809;51.892;8.384;2023-05-10T11:50:19;100096.47;;;17.19;100.00
17383;BME280;8809;51.892;8.384;2023-05-10T11:52:50;100096.44;;;17.16;100.00
17383;BME280;8809;51.892;8.384;2023-05-10T11:55:20;100093.72;;;17.04;100.00
17383;BME280;8809;51.892;8.384;2023-05-10T11:57:51;100097.94;;;16.82;100.00
17383;BME280;8809;51.892;8.384;2023-05-10T12:00:19;100101.38;;;16.71;100.00
17383;BME280;8809;51.892;8.384;2023-05-10T12:02:48;100100.13;;;16.38;100.00
17383;BME280;8809;51.892;8.384;2023-05-10T12:05:15;100093.91;;;16.28;100.00
17383;BME280;8809;51.892;8.384;2023-05-10T12:07:43;100098.34;;;16.32;100.00
17383;BME280;8809;51.892;8.384;2023-05-10T12:10:13;100095.66;;;16.28;100.00
17383;BME280;8809;51.892;8.384;2023-05-10T12:12:44;100102.63;;;16.24;100.00
17383;BME280;8809;51.892;8.384;2023-05-10T12:15:17;100098.94;;;16.09;100.00
17383;BME280;8809;51.892;8.384;2023-05-10T12:17:45;100094.53;;;16.05;100.00
17383;BME280;8809;51.892;8.384;2023-05-10T12:20:16;100094.59;;;16.12;100.00
17383;BME280;8809;51.892;8.384;2023-05-10T12:22:45;100098.06;;;16.10;100.00
17383;BME280;8809;51.892;8.384;2023-05-10T12:25:13;100097.16;;;16.06;100.00
17383;BME280;8809;51.892;8.384;2023-05-10T12:27:54;100097.19;;;16.09;100.00
17383;BME280;8809;51.892;8.384;2023-05-10T12:30:23;100099.03;;;16.16;100.00
17383;BME280;8809;51.892;8.384;2023-05-10T12:32:52;100102.59;;;16.20;100.00
17383;BME280;8809;51.892;8.384;2023-05-10T12:35:21;100106.16;;;16.28;100.00
17383;BME280;8809;51.892;8.384;2023-05-10T12:37:50;100100.91;;;16.28;100.00
17383;BME280;8809;51.892;8.384;2023-05-10T12:40:18;100101.88;;;16.36;100.00
17383;BME280;8809;51.892;8.384;2023-05-10T12:42:47;100109.81;;;16.41;100.00
17383;BME280;8809;51.892;8.384;2023-05-10T12:45:17;100108.88;;;16.36;100.00
17383;BME280;8809;51.892;8.384;2023-05-10T12:47:45;100108.84;;;16.31;100.00
17383;BME280;8809;51.892;8.384;2023-05-10T12:50:14;100107.13;;;16.33;100.00
17383;BME280;8809;51.892;8.384;2023-05-10T12:52:43;100115.06;;;16.39;100.00
17383;BME280;8809;51.892;8.384;2023-05-10T12:55:10;100112.41;;;16.36;100.00
17383;BME280;8809;51.892;8.384;2023-05-10T12:57:37;100113.34;;;16.41;100.00
17383;BME280;8809;51.892;8.384;2023-05-10T13:00:06;100116.03;;;16.49;100.00
17383;BME280;8809;51.892;8.384;2023-05-10T13:02:35;100120.44;;;16.48;100.00
17383;BME280;8809;51.892;8.384;2023-05-10T13:05:02;100126.53;;;16.46;100.00
17383;BME280;8809;51.892;8.384;2023-05-10T13:07:30;100132.56;;;16.36;100.00
17383;BME280;8809;51.892;8.384;2023-05-10T13:09:58;100136.09;;;16.33;100.00
17383;BME280;8809;51.892;8.384;2023-05-10T13:12:25;100132.59;;;16.37;100.00
17383;BME280;8809;51.892;8.384;2023-05-10T13:14:53;100138.69;;;16.31;100.00
17383;BME280;8809;51.892;8.384;2023-05-10T13:17:20;100149.13;;;16.24;100.00